createdAt,value
2023-04-26T00:02:18.773Z,10.00
2023-04-26T00:04:47.487Z,10.00
2023-04-26T00:07:15.913Z,10.00
2023-04-26T00:09:44.799Z,10.00
2023-04-26T00:12:12.141Z,9.90
2023-04-26T00:14:39.638Z,10.00
2023-04-26T00:17:06.923Z,9.90
2023-04-26T00:19:33.980Z,9.90
2023-04-26T00:22:01.173Z,9.90
2023-04-26T00:24:28.348Z,9.90
2023-04-26T00:26:56.208Z,10.00
2023-04-26T00:29:23.945Z,10.00
2023-04-26T00:31:51.306Z,10.00
2023-04-26T00:34:18.876Z,10.00
2023-04-26T00:36:46.166Z,10.00
2023-04-26T00:39:13.216Z,10.00
2023-04-26T00:41:40.684Z,10.00
2023-04-26T00:44:07.822Z,10.00
2023-04-26T00:46:35.114Z,10.10
2023-04-26T00:49:02.637Z,10.00
2023-04-26T00:51:29.823Z,10.00
2023-04-26T00:53:57.497Z,10.00
2023-04-26T00:56:25.118Z,10.00
2023-04-26T00:58:52.545Z,10.00
2023-04-26T01:01:19.969Z,10.00
2023-04-26T01:03:48.150Z,10.00
2023-04-26T01:06:15.601Z,10.00
2023-04-26T01:08:42.655Z,10.00
2023-04-26T01:11:11.708Z,10.00
2023-04-26T01:13:39.031Z,10.00
2023-04-26T01:16:08.525Z,10.00
2023-04-26T01:18:36.243Z,10.00
2023-04-26T01:21:04.312Z,9.90
2023-04-26T01:23:32.157Z,9.90
2023-04-26T01:25:59.294Z,9.80
2023-04-26T01:28:26.935Z,9.80
2023-04-26T01:30:54.149Z,9.70
2023-04-26T01:33:21.229Z,9.70
2023-04-26T01:35:48.289Z,9.70
2023-04-26T01:38:16.275Z,9.60
2023-04-26T01:40:46.310Z,9.60
2023-04-26T01:43:13.471Z,9.60
2023-04-26T01:45:41.518Z,9.50
2023-04-26T01:48:27.514Z,9.50
2023-04-26T01:50:54.722Z,9.50
2023-04-26T01:53:21.854Z,9.50
2023-04-26T01:55:48.933Z,9.40
2023-04-26T01:58:16.844Z,9.40
2023-04-26T02:00:43.894Z,9.40
2023-04-26T02:03:11.474Z,9.40
2023-04-26T02:05:38.634Z,9.40
2023-04-26T02:08:06.271Z,9.30
2023-04-26T02:10:33.887Z,9.30
2023-04-26T02:13:00.850Z,9.30
2023-04-26T02:15:27.810Z,9.20
2023-04-26T02:17:56.703Z,9.30
2023-04-26T02:20:23.858Z,9.20
2023-04-26T02:22:51.436Z,9.20
2023-04-26T02:25:19.036Z,9.20
2023-04-26T02:27:46.717Z,9.20
2023-04-26T02:30:14.193Z,9.20
2023-04-26T02:32:41.425Z,9.10
2023-04-26T02:35:09.184Z,9.10
2023-04-26T02:37:36.754Z,9.10
2023-04-26T02:40:05.807Z,9.10
2023-04-26T02:42:32.835Z,9.10
2023-04-26T02:45:00.049Z,9.10
2023-04-26T02:47:28.349Z,9.10
2023-04-26T02:49:56.088Z,9.00
2023-04-26T02:52:23.160Z,9.00
2023-04-26T02:54:50.305Z,9.00
2023-04-26T02:57:17.346Z,9.00
2023-04-26T02:59:44.365Z,9.00
2023-04-26T03:02:11.862Z,9.00
2023-04-26T03:04:40.096Z,9.00
2023-04-26T03:07:07.257Z,9.00
2023-04-26T03:09:38.149Z,8.90
2023-04-26T03:12:08.937Z,8.90
2023-04-26T03:14:37.459Z,8.90
2023-04-26T03:17:04.499Z,8.90
2023-04-26T03:19:33.026Z,8.90
2023-04-26T03:22:01.771Z,8.90
2023-04-26T03:24:29.081Z,8.80
2023-04-26T03:26:56.072Z,8.70
2023-04-26T03:29:23.099Z,8.60
2023-04-26T03:31:50.193Z,8.70
2023-04-26T03:34:17.601Z,8.70
2023-04-26T03:36:45.113Z,8.70
2023-04-26T03:39:14.722Z,8.70
2023-04-26T03:41:41.940Z,8.70
2023-04-26T03:44:12.502Z,8.60
2023-04-26T03:46:40.191Z,8.60
2023-04-26T03:49:07.769Z,8.60
2023-04-26T03:51:34.764Z,8.60
2023-04-26T03:54:02.488Z,8.60
2023-04-26T03:56:29.702Z,8.60
2023-04-26T03:58:57.053Z,8.60
2023-04-26T04:01:25.910Z,8.60
2023-04-26T04:03:53.190Z,8.50
2023-04-26T04:06:20.484Z,8.60
2023-04-26T04:08:47.689Z,8.60
2023-04-26T04:11:16.737Z,8.60
2023-04-26T04:13:44.642Z,8.60
2023-04-26T04:16:11.959Z,8.70
2023-04-26T04:18:39.049Z,8.70
2023-04-26T04:21:06.786Z,8.60
2023-04-26T04:23:34.315Z,8.70
2023-04-26T04:26:05.960Z,8.70
2023-04-26T04:28:34.580Z,8.70
2023-04-26T04:31:02.518Z,8.70
2023-04-26T04:33:29.720Z,8.70
2023-04-26T04:35:58.695Z,8.70
2023-04-26T04:38:25.944Z,8.80
2023-04-26T04:40:53.525Z,8.80
2023-04-26T04:43:21.601Z,8.70
2023-04-26T04:45:49.506Z,8.70
2023-04-26T04:48:17.022Z,8.80
2023-04-26T04:50:45.221Z,8.90
2023-04-26T04:53:15.026Z,8.90
2023-04-26T04:55:42.210Z,9.00
2023-04-26T04:58:10.364Z,9.00
2023-04-26T05:00:38.168Z,9.00
2023-04-26T05:03:34.615Z,9.00
2023-04-26T05:06:04.815Z,9.10
2023-04-26T05:08:32.271Z,9.20
2023-04-26T05:11:03.089Z,9.20
2023-04-26T05:13:30.231Z,9.30
2023-04-26T05:15:57.270Z,9.40
2023-04-26T05:18:24.488Z,9.40
2023-04-26T05:20:51.606Z,9.40
2023-04-26T05:23:18.801Z,9.50
2023-04-26T05:25:45.886Z,9.50
2023-04-26T05:28:35.972Z,9.50
2023-04-26T05:31:26.301Z,9.60
2023-04-26T05:34:05.534Z,9.60
2023-04-26T05:36:37.250Z,9.60
2023-04-26T05:39:05.914Z,9.70
2023-04-26T05:41:33.260Z,9.70
2023-04-26T05:44:01.083Z,9.80
2023-04-26T05:46:28.530Z,9.90
2023-04-26T05:48:55.737Z,9.90
2023-04-26T05:51:22.775Z,10.00
2023-04-26T05:53:51.179Z,10.00
2023-04-26T05:56:18.540Z,10.20
2023-04-26T05:58:45.671Z,10.10
2023-04-26T06:01:14.009Z,10.10
2023-04-26T06:03:41.494Z,10.20
2023-04-26T06:06:09.067Z,10.30
2023-04-26T06:08:39.060Z,10.60
2023-04-26T06:11:06.352Z,10.40
2023-04-26T06:13:33.377Z,10.60
2023-04-26T06:16:00.813Z,10.70
2023-04-26T06:18:28.014Z,10.70
2023-04-26T06:20:55.182Z,10.90
2023-04-26T06:23:22.188Z,11.00
2023-04-26T06:25:49.521Z,11.00
2023-04-26T06:28:16.848Z,11.00
2023-04-26T06:30:44.012Z,10.80
2023-04-26T06:33:11.399Z,10.90
2023-04-26T06:35:41.125Z,10.90
2023-04-26T06:38:09.485Z,11.10
2023-04-26T06:40:38.627Z,11.10
2023-04-26T06:43:05.794Z,11.30
2023-04-26T06:46:05.212Z,11.20
2023-04-26T06:48:32.312Z,11.00
2023-04-26T06:50:59.370Z,11.30
2023-04-26T06:53:26.400Z,11.20
2023-04-26T06:55:54.256Z,11.20
2023-04-26T06:58:22.264Z,11.30
2023-04-26T07:00:49.194Z,11.40
2023-04-26T07:03:16.967Z,11.40
2023-04-26T07:05:44.137Z,11.40
2023-04-26T07:08:12.284Z,11.50
2023-04-26T07:10:42.468Z,11.90
2023-04-26T07:13:09.740Z,11.90
2023-04-26T07:15:36.915Z,11.90
2023-04-26T07:18:04.039Z,12.00
2023-04-26T07:20:31.083Z,12.10
2023-04-26T07:22:58.289Z,11.90
2023-04-26T07:25:25.603Z,11.90
2023-04-26T07:27:52.638Z,12.10
2023-04-26T07:30:20.233Z,12.20
2023-04-26T07:32:47.623Z,12.20
2023-04-26T07:35:16.594Z,12.00
2023-04-26T07:37:45.071Z,11.80
2023-04-26T07:40:14.288Z,12.20
2023-04-26T07:42:41.831Z,12.20
2023-04-26T07:45:09.613Z,12.30
2023-04-26T07:47:36.878Z,12.60
2023-04-26T07:50:04.404Z,12.70
2023-04-26T07:52:31.546Z,13.00
2023-04-26T07:54:58.862Z,12.60
2023-04-26T07:57:26.013Z,12.50
2023-04-26T07:59:53.119Z,12.40
2023-04-26T08:02:23.244Z,12.60
2023-04-26T08:04:58.260Z,12.70
2023-04-26T08:07:25.570Z,12.60
2023-04-26T08:09:52.843Z,12.60
2023-04-26T08:12:20.129Z,13.10
2023-04-26T08:14:47.495Z,12.70
2023-04-26T08:17:15.261Z,13.00
2023-04-26T08:19:42.763Z,13.20
2023-04-26T08:22:10.144Z,13.60
2023-04-26T08:24:37.173Z,13.50
2023-04-26T08:27:04.320Z,12.80
2023-04-26T08:29:31.684Z,12.90
2023-04-26T08:31:58.768Z,13.20
2023-04-26T08:34:27.769Z,13.10
2023-04-26T08:36:54.702Z,13.30
2023-04-26T08:39:21.778Z,13.10
2023-04-26T08:41:57.591Z,12.40
2023-04-26T08:44:25.715Z,12.80
2023-04-26T08:47:00.863Z,12.70
2023-04-26T08:49:41.777Z,12.60
2023-04-26T08:52:14.841Z,12.60
2023-04-26T08:54:42.028Z,13.10
2023-04-26T08:57:09.571Z,12.80
2023-04-26T08:59:37.492Z,12.40
2023-04-26T09:02:06.624Z,12.30
2023-04-26T09:04:34.181Z,12.60
2023-04-26T09:07:03.155Z,12.90
2023-04-26T09:09:43.107Z,12.80
2023-04-26T09:12:10.404Z,13.10
2023-04-26T09:14:39.212Z,13.40
2023-04-26T09:17:06.367Z,13.10
2023-04-26T09:19:40.212Z,13.10
2023-04-26T09:22:07.767Z,13.30
2023-04-26T09:24:52.387Z,13.60
2023-04-26T09:27:20.192Z,13.30
2023-04-26T09:30:02.822Z,13.10
2023-04-26T09:32:48.230Z,13.40
2023-04-26T09:35:39.058Z,13.40
2023-04-26T09:38:13.221Z,13.30
2023-04-26T09:40:41.400Z,13.90
2023-04-26T09:43:12.940Z,13.30
2023-04-26T09:45:57.451Z,13.50
2023-04-26T09:48:35.168Z,13.30
2023-04-26T09:51:12.302Z,13.40
2023-04-26T09:53:42.810Z,13.80
2023-04-26T09:56:22.125Z,13.80
2023-04-26T09:59:05.786Z,14.00
2023-04-26T10:01:35.078Z,13.80
2023-04-26T10:04:02.486Z,13.80
2023-04-26T10:06:29.804Z,14.10
2023-04-26T10:08:57.274Z,14.20
2023-04-26T10:11:26.829Z,14.00
2023-04-26T10:13:54.624Z,13.80
2023-04-26T10:16:22.068Z,14.00
2023-04-26T10:18:51.187Z,13.80
2023-04-26T10:21:32.751Z,14.20
2023-04-26T10:24:00.492Z,14.30
2023-04-26T10:26:54.495Z,14.30
2023-04-26T10:29:22.657Z,14.10
2023-04-26T10:32:09.504Z,14.00
2023-04-26T10:34:37.513Z,13.80
2023-04-26T10:37:08.541Z,13.90
2023-04-26T10:39:36.738Z,13.90
2023-04-26T10:42:25.541Z,14.40
2023-04-26T10:44:57.636Z,14.20
2023-04-26T10:47:31.678Z,14.20
2023-04-26T10:50:17.041Z,14.60
2023-04-26T10:53:03.881Z,14.70
2023-04-26T10:55:43.529Z,14.20
2023-04-26T10:58:29.063Z,14.10
2023-04-26T11:01:21.162Z,14.30
2023-04-26T11:03:58.400Z,14.70
2023-04-26T11:06:26.979Z,14.70
2023-04-26T11:08:54.901Z,14.70
2023-04-26T11:11:27.168Z,14.70
2023-04-26T11:13:54.389Z,14.60
2023-04-26T11:16:21.640Z,14.80
2023-04-26T11:18:48.845Z,14.70
2023-04-26T11:21:19.687Z,15.00
2023-04-26T11:23:56.298Z,14.60
2023-04-26T11:26:24.767Z,14.30
2023-04-26T11:28:52.254Z,14.00
2023-04-26T11:31:19.708Z,13.90
2023-04-26T11:33:49.835Z,13.80
2023-04-26T11:36:17.232Z,13.50
2023-04-26T11:38:44.371Z,13.90
2023-04-26T11:41:11.561Z,14.00
2023-04-26T11:43:39.905Z,14.10
2023-04-26T11:46:09.422Z,14.40
2023-04-26T11:48:38.530Z,15.00
2023-04-26T11:51:07.658Z,14.80
2023-04-26T11:53:42.690Z,15.40
2023-04-26T11:56:17.285Z,14.70
2023-04-26T11:58:48.902Z,14.60
2023-04-26T12:01:26.977Z,15.10
2023-04-26T12:03:55.873Z,14.70
2023-04-26T12:06:42.062Z,14.30
2023-04-26T12:09:09.836Z,14.30
2023-04-26T12:11:36.866Z,14.50
2023-04-26T12:14:04.929Z,14.60
2023-04-26T12:16:32.536Z,14.80
2023-04-26T12:18:59.667Z,14.90
2023-04-26T12:21:30.396Z,14.70
2023-04-26T12:23:58.078Z,14.80
2023-04-26T12:26:44.843Z,14.30
2023-04-26T12:29:11.867Z,14.20
2023-04-26T12:31:39.098Z,14.60
2023-04-26T12:34:06.140Z,14.70
2023-04-26T12:36:33.404Z,14.50
2023-04-26T12:39:03.813Z,13.90
2023-04-26T12:41:31.050Z,14.10
2023-04-26T12:43:58.261Z,13.90
2023-04-26T12:46:26.222Z,13.70
2023-04-26T12:48:54.295Z,14.00
2023-04-26T12:51:21.409Z,14.50
2023-04-26T12:53:48.489Z,14.40
2023-04-26T12:56:16.657Z,14.20
2023-04-26T12:58:43.712Z,13.90
2023-04-26T13:01:13.957Z,13.40
2023-04-26T13:03:41.188Z,13.40
2023-04-26T13:06:08.598Z,13.40
2023-04-26T13:08:35.936Z,13.50
2023-04-26T13:11:03.201Z,13.60
2023-04-26T13:13:42.270Z,13.30
2023-04-26T13:16:09.930Z,13.40
2023-04-26T13:18:37.170Z,13.40
2023-04-26T13:21:04.671Z,14.20
2023-04-26T13:23:31.619Z,14.10
2023-04-26T13:25:58.753Z,13.80
2023-04-26T13:28:25.744Z,13.70
2023-04-26T13:30:52.838Z,13.80
2023-04-26T13:33:21.450Z,13.90
2023-04-26T13:35:48.878Z,13.70
2023-04-26T13:38:16.982Z,14.00
2023-04-26T13:40:44.815Z,14.50
2023-04-26T13:43:11.798Z,14.80
2023-04-26T13:45:38.854Z,15.30
2023-04-26T13:48:06.175Z,15.10
2023-04-26T13:50:33.298Z,14.20
2023-04-26T13:53:00.721Z,14.20
2023-04-26T13:55:29.950Z,14.40
2023-04-26T13:57:57.205Z,14.50
2023-04-26T14:00:24.206Z,13.90
2023-04-26T14:02:51.552Z,13.90
2023-04-26T14:05:18.905Z,14.30
2023-04-26T14:07:46.206Z,14.70
2023-04-26T14:10:13.481Z,14.60
2023-04-26T14:12:41.350Z,14.40
2023-04-26T14:15:08.883Z,14.30
2023-04-26T14:17:35.997Z,14.30
2023-04-26T14:20:03.556Z,14.10
2023-04-26T14:22:30.761Z,13.90
2023-04-26T14:24:58.260Z,13.70
2023-04-26T14:27:25.342Z,13.40
2023-04-26T14:29:52.364Z,13.30
2023-04-26T14:32:19.372Z,13.30
2023-04-26T14:34:46.590Z,13.30
2023-04-26T14:37:13.755Z,13.40
2023-04-26T14:39:41.038Z,13.20
2023-04-26T14:42:08.222Z,13.40
2023-04-26T14:44:35.206Z,13.50
2023-04-26T14:47:02.251Z,13.70
2023-04-26T14:49:29.221Z,13.70
2023-04-26T14:51:56.345Z,13.50
2023-04-26T14:54:23.517Z,13.50
2023-04-26T14:56:51.494Z,13.30
2023-04-26T14:59:18.624Z,13.00
2023-04-26T15:01:45.917Z,13.00
2023-04-26T15:04:13.232Z,13.00
2023-04-26T15:06:40.710Z,13.10
2023-04-26T15:09:08.793Z,12.90
2023-04-26T15:11:36.107Z,13.00
2023-04-26T15:14:03.162Z,13.00
2023-04-26T15:16:30.671Z,13.10
2023-04-26T15:18:57.670Z,12.90
2023-04-26T15:21:25.191Z,12.70
2023-04-26T15:23:52.208Z,12.50
2023-04-26T15:26:19.303Z,12.50
2023-04-26T15:28:46.592Z,12.40
2023-04-26T15:31:13.974Z,12.40
2023-04-26T15:33:44.192Z,12.80
2023-04-26T15:36:11.244Z,13.00
2023-04-26T15:38:38.553Z,13.20
2023-04-26T15:41:06.834Z,13.20
2023-04-26T15:43:33.854Z,13.10
2023-04-26T15:46:00.984Z,12.90
2023-04-26T15:48:28.101Z,12.70
2023-04-26T15:50:56.959Z,12.60
2023-04-26T15:53:24.606Z,12.60
2023-04-26T15:55:51.860Z,12.50
2023-04-26T15:58:19.129Z,12.30
2023-04-26T16:00:46.200Z,12.20
2023-04-26T16:03:13.527Z,12.30
2023-04-26T16:05:40.746Z,12.20
2023-04-26T16:08:07.946Z,12.20
2023-04-26T16:10:37.555Z,12.20
2023-04-26T16:13:05.348Z,12.20
2023-04-26T16:15:32.353Z,12.20
2023-04-26T16:17:59.783Z,12.20
2023-04-26T16:20:27.650Z,12.20
2023-04-26T16:22:54.974Z,12.20
2023-04-26T16:25:22.551Z,12.20
2023-04-26T16:27:49.546Z,12.20
2023-04-26T16:30:17.588Z,12.30
2023-04-26T16:32:44.691Z,12.20
2023-04-26T16:35:11.982Z,12.20
2023-04-26T16:37:41.035Z,12.30
2023-04-26T16:40:10.470Z,12.40
2023-04-26T16:42:37.450Z,12.40
2023-04-26T16:45:04.651Z,12.40
2023-04-26T16:47:31.611Z,12.40
2023-04-26T16:49:58.802Z,12.40
2023-04-26T16:52:26.101Z,12.40
2023-04-26T16:54:53.184Z,12.40
2023-04-26T16:57:20.257Z,12.30
2023-04-26T16:59:47.335Z,12.30
2023-04-26T17:02:14.637Z,12.10
2023-04-26T17:04:42.053Z,12.10
2023-04-26T17:07:09.688Z,12.20
2023-04-26T17:09:38.562Z,12.10
2023-04-26T17:12:07.554Z,12.10
2023-04-26T17:14:34.937Z,12.00
2023-04-26T17:17:02.301Z,12.10
2023-04-26T17:19:29.477Z,12.00
2023-04-26T17:21:56.592Z,11.90
2023-04-26T17:24:24.201Z,11.80
2023-04-26T17:26:51.826Z,11.70
2023-04-26T17:29:20.256Z,11.70
2023-04-26T17:31:47.534Z,11.60
2023-04-26T17:34:14.569Z,11.50
2023-04-26T17:36:42.242Z,11.50
2023-04-26T17:39:09.721Z,11.40
2023-04-26T17:41:37.357Z,11.40
2023-04-26T17:44:05.033Z,11.40
2023-04-26T17:46:32.302Z,11.30
2023-04-26T17:49:00.170Z,11.30
2023-04-26T17:51:28.060Z,11.20
2023-04-26T17:53:55.159Z,11.10
2023-04-26T17:56:22.529Z,11.10
2023-04-26T17:58:50.975Z,11.00
2023-04-26T18:01:18.554Z,11.00
2023-04-26T18:03:46.702Z,10.90
2023-04-26T18:06:15.210Z,10.90
2023-04-26T18:08:42.862Z,10.90
2023-04-26T18:11:10.167Z,10.80
2023-04-26T18:13:37.834Z,10.80
2023-04-26T18:16:05.176Z,10.80
2023-04-26T18:18:32.948Z,10.80
2023-04-26T18:21:03.501Z,10.70
2023-04-26T18:23:31.812Z,10.70
2023-04-26T18:25:59.605Z,10.60
2023-04-26T18:28:27.147Z,10.60
2023-04-26T18:30:58.945Z,10.60
2023-04-26T18:33:28.298Z,10.50
2023-04-26T18:35:55.853Z,10.60
2023-04-26T18:38:23.594Z,10.50
2023-04-26T18:40:52.083Z,10.50
2023-04-26T18:43:19.807Z,10.40
2023-04-26T18:45:47.722Z,10.40
2023-04-26T18:48:15.671Z,10.40
2023-04-26T18:50:51.645Z,10.40
2023-04-26T18:53:20.001Z,10.40
2023-04-26T18:55:48.476Z,10.30
2023-04-26T18:58:19.150Z,10.30
2023-04-26T19:00:46.790Z,10.20
2023-04-26T19:03:14.872Z,10.20
2023-04-26T19:05:43.896Z,10.20
2023-04-26T19:08:12.788Z,10.20
2023-04-26T19:10:41.569Z,10.20
2023-04-26T19:13:09.175Z,10.20
2023-04-26T19:15:37.104Z,10.10
2023-04-26T19:18:05.438Z,10.10
2023-04-26T19:20:33.109Z,10.00
2023-04-26T19:23:00.985Z,10.00
2023-04-26T19:25:30.957Z,10.00
2023-04-26T19:28:00.590Z,9.90
2023-04-26T19:30:28.176Z,10.00
2023-04-26T19:32:56.056Z,9.90
2023-04-26T19:35:24.228Z,9.90
2023-04-26T19:37:52.403Z,9.90
2023-04-26T19:40:19.886Z,9.90
2023-04-26T19:42:47.533Z,9.80
2023-04-26T19:45:15.067Z,9.80
2023-04-26T19:47:43.614Z,9.60
2023-04-26T19:50:11.891Z,9.70
2023-04-26T19:52:39.704Z,9.70
2023-04-26T19:55:08.296Z,9.60
2023-04-26T19:57:37.863Z,9.60
2023-04-26T20:00:08.586Z,9.60
2023-04-26T20:02:36.619Z,9.50
2023-04-26T20:05:05.608Z,9.40
2023-04-26T20:07:33.339Z,9.40
2023-04-26T20:10:00.835Z,9.40
2023-04-26T20:12:28.515Z,9.40
2023-04-26T20:14:57.530Z,9.40
2023-04-26T20:17:25.968Z,9.30
2023-04-26T20:19:54.381Z,9.20
2023-04-26T20:22:23.577Z,9.20
2023-04-26T20:24:51.559Z,9.20
2023-04-26T20:27:19.317Z,9.20
2023-04-26T20:29:49.978Z,9.20
2023-04-26T20:32:17.754Z,9.20
2023-04-26T20:34:45.835Z,9.10
2023-04-26T20:37:13.918Z,9.20
2023-04-26T20:39:41.338Z,9.10
2023-04-26T20:42:08.558Z,9.10
2023-04-26T20:44:37.267Z,9.10
2023-04-26T20:47:06.185Z,9.10
2023-04-26T20:49:33.441Z,9.10
2023-04-26T20:52:01.080Z,9.10
2023-04-26T20:54:28.132Z,8.90
2023-04-26T20:56:55.604Z,8.80
2023-04-26T20:59:24.432Z,8.90
2023-04-26T21:01:53.235Z,8.90
2023-04-26T21:04:20.769Z,8.90
2023-04-26T21:06:48.054Z,8.90
2023-04-26T21:09:15.249Z,8.90
2023-04-26T21:11:42.553Z,8.90
2023-04-26T21:14:09.624Z,8.90
2023-04-26T21:16:36.838Z,8.80
2023-04-26T21:19:04.636Z,8.80
2023-04-26T21:21:32.717Z,8.70
2023-04-26T21:23:59.916Z,8.80
2023-04-26T21:26:27.111Z,8.70
2023-04-26T21:28:54.146Z,8.60
2023-04-26T21:31:21.275Z,8.50
2023-04-26T21:33:48.379Z,8.50
2023-04-26T21:36:16.355Z,8.40
2023-04-26T21:38:43.313Z,8.40
2023-04-26T21:41:10.932Z,8.40
2023-04-26T21:43:38.251Z,8.30
2023-04-26T21:46:05.357Z,8.30
2023-04-26T21:48:32.474Z,8.20
2023-04-26T21:50:59.576Z,8.30
2023-04-26T21:53:27.228Z,8.20
2023-04-26T21:55:54.449Z,8.30
2023-04-26T21:58:22.365Z,8.20
2023-04-26T22:00:50.775Z,8.20
2023-04-26T22:03:20.061Z,8.20
2023-04-26T22:05:47.238Z,8.10
2023-04-26T22:08:14.400Z,8.10
2023-04-26T22:10:41.975Z,8.10
2023-04-26T22:13:09.228Z,8.10
2023-04-26T22:15:36.773Z,8.10
2023-04-26T22:18:04.246Z,8.10
2023-04-26T22:20:31.410Z,8.00
2023-04-26T22:22:58.446Z,7.90
2023-04-26T22:25:26.710Z,7.90
2023-04-26T22:27:53.923Z,7.80
2023-04-26T22:30:25.665Z,7.80
2023-04-26T22:32:55.701Z,7.80
2023-04-26T22:35:24.339Z,7.70
2023-04-26T22:37:51.662Z,7.70
2023-04-26T22:40:19.000Z,7.60
2023-04-26T22:42:46.613Z,7.50
2023-04-26T22:45:13.705Z,7.50
2023-04-26T22:47:41.600Z,7.50
2023-04-26T22:50:09.197Z,7.50
2023-04-26T22:52:36.854Z,7.40
2023-04-26T22:55:04.020Z,7.40
2023-04-26T22:57:31.603Z,7.40
2023-04-26T22:59:58.669Z,7.30
2023-04-26T23:02:26.105Z,7.20
2023-04-26T23:04:56.776Z,7.20
2023-04-26T23:07:24.112Z,7.20
2023-04-26T23:09:51.434Z,7.10
2023-04-26T23:12:20.129Z,7.10
2023-04-26T23:14:48.771Z,7.00
2023-04-26T23:17:16.321Z,7.00
2023-04-26T23:19:43.490Z,7.00
2023-04-26T23:22:11.032Z,7.00
2023-04-26T23:24:38.111Z,7.00
2023-04-26T23:27:05.133Z,6.90
2023-04-26T23:29:32.146Z,6.90
2023-04-26T23:31:59.276Z,6.90
2023-04-26T23:34:26.687Z,6.80
2023-04-26T23:36:53.727Z,6.80
2023-04-26T23:39:20.806Z,6.80
2023-04-26T23:41:47.830Z,6.80
2023-04-26T23:44:14.891Z,6.80
2023-04-26T23:46:41.987Z,6.70
2023-04-26T23:49:09.378Z,6.70
2023-04-26T23:51:36.511Z,6.60
2023-04-26T23:54:03.693Z,6.60
2023-04-26T23:56:30.719Z,6.60
2023-04-26T23:58:58.392Z,6.60
